createdAt,value
2019-05-20T00:00:17.287Z,9.40
2019-05-20T00:05:22.045Z,9.83
2019-05-20T00:10:26.816Z,7.57
2019-05-20T00:15:32.835Z,9.10
2019-05-20T00:20:36.211Z,7.63
2019-05-20T00:25:39.742Z,7.83
2019-05-20T00:30:43.106Z,9.07
2019-05-20T00:35:48.515Z,8.10
2019-05-20T00:40:53.317Z,10.73
2019-05-20T00:45:58.287Z,9.47
2019-05-20T00:51:04.264Z,6.73
2019-05-20T00:56:09.092Z,9.20
2019-05-20T01:01:13.245Z,9.53
2019-05-20T01:06:17.206Z,8.57
2019-05-20T01:11:21.488Z,8.10
2019-05-20T01:16:25.635Z,8.70
2019-05-20T01:21:29.588Z,8.23
2019-05-20T01:26:33.763Z,10.73
2019-05-20T01:31:37.731Z,7.70
2019-05-20T01:36:41.923Z,10.30
2019-05-20T01:41:46.937Z,7.70
2019-05-20T01:46:51.842Z,9.90
2019-05-20T01:51:55.960Z,7.17
2019-05-20T01:57:00.111Z,9.30
2019-05-20T02:02:04.351Z,10.27
2019-05-20T02:07:08.594Z,10.80
2019-05-20T02:12:12.829Z,10.33
2019-05-20T02:17:16.721Z,14.00
2019-05-20T02:22:21.701Z,8.90
2019-05-20T02:27:26.557Z,10.13
2019-05-20T02:32:31.840Z,9.87
2019-05-20T02:37:37.900Z,10.87
2019-05-20T02:42:42.914Z,8.90
2019-05-20T02:47:47.992Z,9.70
2019-05-20T02:52:54.206Z,10.17
2019-05-20T02:57:59.077Z,12.73
2019-05-20T03:03:04.010Z,15.33
2019-05-20T03:08:09.034Z,12.50
2019-05-20T03:13:13.931Z,11.53
2019-05-20T03:18:20.203Z,8.37
2019-05-20T03:23:25.171Z,8.30
2019-05-20T03:28:30.077Z,9.50
2019-05-20T03:33:35.165Z,9.00
2019-05-20T03:38:39.975Z,7.13
2019-05-20T03:43:44.851Z,9.97
2019-05-20T03:48:49.651Z,10.50
2019-05-20T03:53:55.524Z,10.60
2019-05-20T03:59:00.559Z,9.27
2019-05-20T04:04:05.825Z,10.00
2019-05-20T04:09:10.936Z,10.00
2019-05-20T04:14:16.465Z,12.13
2019-05-20T04:19:21.673Z,13.63
2019-05-20T04:24:26.582Z,12.60
2019-05-20T04:29:31.608Z,10.53
2019-05-20T04:34:36.880Z,11.13
2019-05-20T04:39:41.758Z,10.20
2019-05-20T04:44:46.999Z,12.37
2019-05-20T04:49:51.881Z,12.57
2019-05-20T04:54:58.045Z,14.17
2019-05-20T05:00:03.233Z,11.67
2019-05-20T05:05:08.974Z,11.47
2019-05-20T05:10:14.371Z,11.03
2019-05-20T05:15:19.831Z,15.43
2019-05-20T05:20:24.963Z,11.77
2019-05-20T05:25:30.415Z,13.40
2019-05-20T05:30:35.817Z,15.07
2019-05-20T05:35:52.291Z,13.27
2019-05-20T05:40:46.257Z,15.20
2019-05-20T05:45:50.656Z,26.77
2019-05-20T05:50:54.488Z,16.90
2019-05-20T05:55:59.006Z,16.13
2019-05-20T06:01:02.699Z,23.67
2019-05-20T06:06:13.059Z,23.03
2019-05-20T06:11:15.673Z,18.90
2019-05-20T06:16:35.273Z,24.77
2019-05-20T06:21:26.451Z,27.27
2019-05-20T06:26:30.777Z,25.40
2019-05-20T06:31:35.293Z,37.33
2019-05-20T06:36:45.444Z,35.10
2019-05-20T06:41:50.383Z,32.03
2019-05-20T06:46:54.570Z,34.67
2019-05-20T06:51:58.992Z,32.93
2019-05-20T06:57:03.623Z,32.93
2019-05-20T07:02:08.823Z,36.93
2019-05-20T07:07:21.042Z,39.93
2019-05-20T07:12:21.861Z,36.70
2019-05-20T07:23:52.315Z,38.47
2019-05-20T07:28:55.691Z,38.50
2019-05-20T07:34:01.742Z,40.23
2019-05-20T07:39:07.202Z,42.67
2019-05-20T07:44:11.419Z,42.57
2019-05-20T07:49:17.018Z,38.87
2019-05-20T07:54:23.832Z,43.40
2019-05-20T07:59:32.215Z,44.83
2019-05-20T08:04:37.480Z,42.00
2019-05-20T08:09:46.019Z,45.00
2019-05-20T08:14:49.767Z,45.40
2019-05-20T08:19:55.109Z,48.33
2019-05-20T08:25:00.236Z,40.70
2019-05-20T08:30:07.537Z,41.10
2019-05-20T08:35:12.983Z,43.57
2019-05-20T08:40:18.145Z,41.33
2019-05-20T08:45:23.209Z,44.40
2019-05-20T08:50:28.289Z,42.63
2019-05-20T08:55:33.247Z,38.37
2019-05-20T09:00:37.866Z,41.63
2019-05-20T09:05:43.643Z,40.00
2019-05-20T09:10:47.161Z,39.87
2019-05-20T09:15:51.919Z,37.10
2019-05-20T09:20:57.626Z,38.27
2019-05-20T09:26:04.228Z,35.30
2019-05-20T09:31:09.572Z,33.03
2019-05-20T09:36:15.108Z,35.70
2019-05-20T09:41:19.705Z,36.60
2019-05-20T09:46:24.019Z,32.50
2019-05-20T09:51:28.585Z,36.43
2019-05-20T09:56:32.917Z,30.27
2019-05-20T10:01:39.898Z,33.20
2019-05-20T10:06:43.484Z,32.13
2019-05-20T10:11:47.985Z,31.97
2019-05-20T10:16:52.538Z,29.23
2019-05-20T10:21:57.449Z,29.67
2019-05-20T10:27:02.801Z,30.80
2019-05-20T10:32:07.968Z,30.30
2019-05-20T10:37:13.780Z,32.37
2019-05-20T10:42:18.319Z,33.13
2019-05-20T10:47:22.517Z,26.80
2019-05-20T10:52:26.780Z,22.23
2019-05-20T10:57:31.605Z,31.43
2019-05-20T11:02:37.998Z,26.40
2019-05-20T11:07:44.212Z,28.70
2019-05-20T11:12:50.055Z,30.07
2019-05-20T11:17:56.798Z,26.70
2019-05-20T11:23:02.330Z,29.50
2019-05-20T11:28:07.086Z,30.80
2019-05-20T11:33:12.858Z,32.23
2019-05-20T11:38:18.624Z,27.47
2019-05-20T11:43:23.756Z,25.67
2019-05-20T11:48:28.629Z,26.20
2019-05-20T11:53:33.851Z,29.37
2019-05-20T11:58:39.222Z,28.33
2019-05-20T12:03:45.388Z,25.57
2019-05-20T12:08:50.305Z,25.70
2019-05-20T12:13:55.804Z,25.47
2019-05-20T12:19:00.983Z,28.60
2019-05-20T12:24:08.082Z,29.83
2019-05-20T12:29:13.274Z,26.13
2019-05-20T12:34:18.622Z,26.93
2019-05-20T12:39:23.985Z,25.77
2019-05-20T12:44:29.324Z,23.03
2019-05-20T12:49:35.338Z,27.30
2019-05-20T12:54:40.735Z,30.40
2019-05-20T12:59:47.321Z,27.00
2019-05-20T13:04:53.148Z,25.23
2019-05-20T13:10:02.578Z,28.10
2019-05-20T13:15:05.964Z,25.67
2019-05-20T13:20:10.900Z,37.20
2019-05-20T13:25:16.682Z,28.53
2019-05-20T13:30:23.552Z,27.70
2019-05-20T13:35:28.947Z,28.33
2019-05-20T13:40:45.929Z,33.57
2019-05-20T13:45:39.027Z,35.30
2019-05-20T13:50:44.296Z,35.60
2019-05-20T13:55:50.537Z,40.90
2019-05-20T14:00:56.485Z,35.67
2019-05-20T14:06:02.776Z,39.90
2019-05-20T14:11:08.087Z,41.13
2019-05-20T14:16:13.085Z,50.37
2019-05-20T14:21:17.637Z,47.50
2019-05-20T14:26:21.735Z,48.40
2019-05-20T14:31:25.796Z,49.63
2019-05-20T14:36:39.498Z,47.60
2019-05-20T14:41:37.309Z,50.53
2019-05-20T14:46:42.633Z,48.40
2019-05-20T14:51:47.458Z,49.63
2019-05-20T14:56:51.737Z,55.20
2019-05-20T15:01:55.948Z,53.07
2019-05-20T15:07:02.074Z,47.63
2019-05-20T15:12:08.090Z,53.60
2019-05-20T15:17:13.508Z,51.07
2019-05-20T15:22:18.288Z,52.57
2019-05-20T15:27:22.738Z,55.97
2019-05-20T15:32:27.186Z,59.37
2019-05-20T15:37:31.491Z,55.90
2019-05-20T15:42:36.877Z,58.63
2019-05-20T15:47:42.454Z,54.17
2019-05-20T15:52:47.663Z,56.53
2019-05-20T15:57:52.782Z,61.80
2019-05-20T16:02:58.848Z,56.13
2019-05-20T16:08:04.689Z,58.60
2019-05-20T16:13:10.034Z,56.50
2019-05-20T16:18:15.838Z,62.10
2019-05-20T16:23:21.123Z,54.57
2019-05-20T16:28:26.779Z,56.47
2019-05-20T16:33:32.094Z,60.50
2019-05-20T16:38:38.645Z,59.07
2019-05-20T16:43:43.790Z,59.73
2019-05-20T16:48:49.644Z,60.90
2019-05-20T16:53:55.411Z,61.43
2019-05-20T16:59:00.732Z,56.93
2019-05-20T17:04:06.089Z,59.60
2019-05-20T17:09:12.191Z,58.27
2019-05-20T17:14:17.423Z,53.90
2019-05-20T17:19:22.556Z,63.47
2019-05-20T17:24:27.508Z,58.27
2019-05-20T17:29:33.337Z,68.47
2019-05-20T17:34:38.607Z,62.47
2019-05-20T17:39:43.624Z,57.93
2019-05-20T17:44:48.650Z,59.83
2019-05-20T17:49:53.808Z,63.20
2019-05-20T17:54:59.245Z,61.10
2019-05-20T18:00:04.946Z,61.60
2019-05-20T18:05:10.478Z,58.17
2019-05-20T18:10:19.168Z,56.10
2019-05-20T18:15:24.627Z,59.73
2019-05-20T18:20:30.553Z,55.33
2019-05-20T18:25:35.708Z,58.80
2019-05-20T18:30:40.926Z,61.70
2019-05-20T18:35:45.299Z,60.33
2019-05-20T18:40:49.427Z,55.73
2019-05-20T18:45:54.930Z,61.63
2019-05-20T18:50:59.391Z,59.27
2019-05-20T18:56:04.083Z,54.93
2019-05-20T19:01:08.508Z,56.17
2019-05-20T19:06:13.776Z,66.87
2019-05-20T19:11:19.285Z,71.40
2019-05-20T19:16:24.582Z,63.37
2019-05-20T19:21:28.833Z,67.30
2019-05-20T19:26:33.430Z,70.70
2019-05-20T19:31:39.103Z,71.27
2019-05-20T19:36:43.448Z,72.63
2019-05-20T19:41:48.186Z,70.47
2019-05-20T19:46:53.263Z,71.27
2019-05-20T19:51:58.042Z,78.90
2019-05-20T19:57:03.151Z,82.57
2019-05-20T20:02:16.846Z,75.17
2019-05-20T20:07:15.719Z,76.70
2019-05-20T20:12:22.720Z,75.13
2019-05-20T20:17:28.426Z,78.50
2019-05-20T20:22:33.434Z,77.37
2019-05-20T20:27:38.872Z,75.00
2019-05-20T20:32:44.257Z,66.13
2019-05-20T20:37:49.270Z,74.37
2019-05-20T20:42:54.282Z,74.80
2019-05-20T20:47:58.543Z,76.47
2019-05-20T20:53:03.671Z,74.73
2019-05-20T20:58:08.662Z,68.47
2019-05-20T21:03:13.863Z,72.40
2019-05-20T21:08:19.051Z,67.73
2019-05-20T21:13:25.223Z,67.63
2019-05-20T21:18:30.190Z,72.03
2019-05-20T21:23:38.069Z,64.07
2019-05-20T21:28:43.204Z,75.23
2019-05-20T21:33:48.365Z,68.57
2019-05-20T21:38:53.735Z,79.53
2019-05-20T21:43:58.920Z,77.97
2019-05-20T21:49:05.284Z,85.63
2019-05-20T21:54:10.446Z,84.20
2019-05-20T21:59:15.288Z,90.43
2019-05-20T22:04:20.178Z,87.27
2019-05-20T22:09:25.313Z,78.60
2019-05-20T22:14:30.700Z,83.90
2019-05-20T22:19:36.292Z,85.70
2019-05-20T22:24:41.347Z,83.87
2019-05-20T22:29:46.311Z,81.97
2019-05-20T22:34:53.507Z,76.00
2019-05-20T22:39:58.939Z,83.50
2019-05-20T22:45:03.964Z,87.40
2019-05-20T22:50:09.609Z,75.30
2019-05-20T22:55:34.810Z,80.57
2019-05-20T23:00:39.757Z,78.20
2019-05-20T23:05:44.558Z,87.10
2019-05-20T23:10:50.953Z,84.37
2019-05-20T23:15:55.804Z,83.90
2019-05-20T23:21:00.076Z,82.47
2019-05-20T23:26:04.195Z,87.60
2019-05-20T23:31:08.327Z,87.27
2019-05-20T23:36:12.084Z,85.33
2019-05-20T23:41:15.417Z,85.60
2019-05-20T23:46:18.931Z,90.47
2019-05-20T23:51:22.311Z,87.43
2019-05-20T23:56:26.644Z,89.13
